Time;durP1;ratioP1;P1;durP2;ratioP2;P2;SDS_P1;SDS_P2;PMS_P1;PMS_P2;Temp;Humidity;BMP_temperature;BMP_pressure;BME280_temperature;BME280_humidity;BME280_pressure;Samples;Min_cycle;Max_cycle;Signal;HPM_P1;HPM_P2
2023/05/02 00:01:03;;;;;;;2.25;0.80;;;;;;;;;;5123480;27;20487;-70
2023/05/02 00:03:31;;;;;;;2.25;0.85;;;;;;;;;;5117087;27;20070;-70
2023/05/02 00:05:58;;;;;;;1.60;0.73;;;;;;;;;;5113032;27;20051;-70
2023/05/02 00:08:25;;;;;;;2.50;0.80;;;;;;;;;;5114879;27;20047;-70
2023/05/02 00:10:54;;;;;;;2.42;0.65;;;;;;;;;;5105555;27;20059;-70
2023/05/02 00:13:21;;;;;;;2.35;0.68;;;;;;;;;;5109189;27;20048;-70
2023/05/02 00:15:49;;;;;;;3.97;0.80;;;;;;;;;;5115024;27;20075;-70
2023/05/02 00:18:16;;;;;;;2.33;0.80;;;;;;;;;;5111419;27;20047;-70
2023/05/02 00:20:44;;;;;;;1.90;0.65;;;;;;;;;;5113486;27;20169;-70
2023/05/02 00:23:12;;;;;;;2.63;0.60;;;;;;;;;;5129954;27;20043;-70
2023/05/02 00:25:44;;;;;;;1.40;0.80;;;;;;;;;;5128488;27;20394;-70
2023/05/02 00:28:13;;;;;;;4.10;1.23;;;;;;;;;;5124330;27;20039;-70
2023/05/02 00:30:43;;;;;;;2.30;0.80;;;;;;;;;;5131201;27;20099;-70
2023/05/02 00:33:11;;;;;;;1.50;0.80;;;;;;;;;;5111921;27;20098;-70
2023/05/02 00:35:38;;;;;;;9.43;1.60;;;;;;;;;;5130479;27;20043;-70
2023/05/02 00:38:08;;;;;;;5.10;1.40;;;;;;;;;;5113855;27;20055;-70
2023/05/02 00:40:44;;;;;;;10.15;1.48;;;;;;;;;;5129989;27;20047;-70
2023/05/02 00:43:12;;;;;;;8.35;1.80;;;;;;;;;;5125148;27;20100;-70
2023/05/02 00:45:40;;;;;;;5.50;1.52;;;;;;;;;;5126676;27;20069;-70
2023/05/02 00:48:08;;;;;;;11.02;1.90;;;;;;;;;;5110659;27;20047;-70
2023/05/02 00:50:36;;;;;;;8.57;1.80;;;;;;;;;;5131272;27;20047;-70
2023/05/02 00:53:04;;;;;;;8.88;1.75;;;;;;;;;;5127181;27;20062;-70
2023/05/02 00:55:32;;;;;;;10.85;1.85;;;;;;;;;;5130913;27;20050;-70
2023/05/02 00:57:59;;;;;;;7.70;1.73;;;;;;;;;;5110174;27;20051;-69
2023/05/02 01:00:31;;;;;;;10.73;1.52;;;;;;;;;;5132040;27;20494;-70
2023/05/02 01:03:03;;;;;;;5.93;1.73;;;;;;;;;;5127314;27;20047;-70
2023/05/02 01:05:37;;;;;;;6.40;1.70;;;;;;;;;;5124639;27;20394;-70
2023/05/02 01:08:11;;;;;;;6.65;2.08;;;;;;;;;;5129164;27;20054;-70
2023/05/02 01:10:38;;;;;;;;;;;;;;;;;;5129061;27;20773;-69
2023/05/02 01:13:09;;;;;;;3.45;0.93;;;;;;;;;;5130708;27;19946;-70
2023/05/02 01:15:39;;;;;;;9.48;1.27;;;;;;;;;;5129888;27;20045;-70
2023/05/02 01:18:07;;;;;;;6.72;1.30;;;;;;;;;;5130231;27;20050;-70
2023/05/02 01:20:37;;;;;;;6.38;1.63;;;;;;;;;;5130458;27;20051;-70
2023/05/02 01:23:07;;;;;;;12.23;1.92;;;;;;;;;;5129639;27;20054;-70
2023/05/02 01:25:43;;;;;;;9.27;1.60;;;;;;;;;;5127382;27;20058;-69
2023/05/02 01:28:17;;;;;;;11.20;1.75;;;;;;;;;;5125663;27;20047;-69
2023/05/02 01:30:48;;;;;;;8.88;1.50;;;;;;;;;;5124548;27;20130;-70
2023/05/02 01:33:16;;;;;;;6.63;1.48;;;;;;;;;;5111470;27;20082;-70
2023/05/02 01:35:45;;;;;;;8.27;1.95;;;;;;;;;;5130914;27;20112;-70
2023/05/02 01:38:14;;;;;;;11.75;2.10;;;;;;;;;;5128626;27;21292;-70
2023/05/02 01:40:43;;;;;;;10.85;1.73;;;;;;;;;;5125273;27;20051;-70
2023/05/02 01:43:12;;;;;;;6.22;1.75;;;;;;;;;;5126997;27;20669;-70
2023/05/02 01:45:39;;;;;;;5.35;1.52;;;;;;;;;;5131612;27;20494;-70
2023/05/02 01:48:09;;;;;;;6.65;1.60;;;;;;;;;;5129024;27;20051;-69
2023/05/02 01:50:38;;;;;;;9.32;1.67;;;;;;;;;;5122908;27;20072;-70
2023/05/02 01:53:05;;;;;;;10.05;2.17;;;;;;;;;;5129085;27;20121;-70
2023/05/02 01:55:34;;;;;;;4.97;1.33;;;;;;;;;;5129566;27;20398;-70
2023/05/02 01:58:01;;;;;;;13.00;1.98;;;;;;;;;;5129382;27;20082;-70
2023/05/02 02:00:30;;;;;;;13.48;1.65;;;;;;;;;;5129308;27;20050;-69
2023/05/02 02:02:58;;;;;;;6.13;1.70;;;;;;;;;;5129584;27;20391;-70
2023/05/02 02:05:27;;;;;;;9.52;1.90;;;;;;;;;;5128024;27;20054;-70
2023/05/02 02:07:55;;;;;;;9.43;1.92;;;;;;;;;;5127759;27;20068;-69
2023/05/02 02:10:23;;;;;;;6.68;1.45;;;;;;;;;;5129093;27;20411;-70
2023/05/02 02:12:53;;;;;;;11.57;1.98;;;;;;;;;;5124101;27;20046;-70
2023/05/02 02:15:22;;;;;;;6.25;1.27;;;;;;;;;;5124961;27;20047;-69
2023/05/02 02:17:50;;;;;;;7.07;1.42;;;;;;;;;;5123298;27;20054;-70
2023/05/02 02:20:19;;;;;;;8.23;1.40;;;;;;;;;;5123935;27;20059;-70
2023/05/02 02:22:48;;;;;;;5.55;1.42;;;;;;;;;;5124153;27;20074;-70
2023/05/02 02:25:17;;;;;;;7.70;1.50;;;;;;;;;;5126059;27;20043;-70
2023/05/02 02:27:44;;;;;;;8.00;1.25;;;;;;;;;;5128779;27;20170;-70
2023/05/02 02:30:12;;;;;;;6.50;1.40;;;;;;;;;;5125553;27;20054;-70
2023/05/02 02:32:39;;;;;;;5.00;1.15;;;;;;;;;;5127521;27;20051;-70
2023/05/02 02:35:07;;;;;;;3.97;1.27;;;;;;;;;;5126986;27;20040;-70
2023/05/02 02:37:37;;;;;;;5.43;1.38;;;;;;;;;;5127982;27;20055;-70
2023/05/02 02:40:09;;;;;;;13.02;1.65;;;;;;;;;;5128274;27;21201;-69
2023/05/02 02:42:39;;;;;;;6.72;1.30;;;;;;;;;;5128604;27;20062;-69
2023/05/02 02:45:12;;;;;;;7.95;1.55;;;;;;;;;;5110068;27;20400;-70
2023/05/02 02:47:42;;;;;;;6.00;1.43;;;;;;;;;;5128531;27;20487;-70
2023/05/02 02:50:15;;;;;;;9.27;1.70;;;;;;;;;;5127316;27;20047;-69
2023/05/02 02:52:53;;;;;;;8.13;1.70;;;;;;;;;;5128794;27;20107;-70
2023/05/02 02:55:25;;;;;;;7.05;1.33;;;;;;;;;;5125551;27;20126;-69
2023/05/02 02:57:56;;;;;;;6.40;1.42;;;;;;;;;;5119570;27;20478;-70
2023/05/02 03:00:25;;;;;;;10.57;1.27;;;;;;;;;;5129588;27;20387;-70
2023/05/02 03:02:53;;;;;;;5.68;1.17;;;;;;;;;;5124408;27;20056;-70
2023/05/02 03:05:21;;;;;;;8.18;1.10;;;;;;;;;;5128395;27;20548;-70
2023/05/02 03:07:49;;;;;;;3.53;0.90;;;;;;;;;;5126223;27;20043;-69
2023/05/02 03:10:16;;;;;;;4.30;1.13;;;;;;;;;;5129596;27;20058;-70
2023/05/02 03:12:45;;;;;;;2.03;0.70;;;;;;;;;;5127763;27;20138;-70
2023/05/02 03:15:23;;;;;;;11.48;1.73;;;;;;;;;;5128480;27;20057;-69
2023/05/02 03:17:50;;;;;;;5.15;0.90;;;;;;;;;;5122710;27;20039;-70
2023/05/02 03:20:18;;;;;;;7.57;0.90;;;;;;;;;;5127292;27;20051;-70
2023/05/02 03:22:45;;;;;;;7.28;1.17;;;;;;;;;;5129336;27;20475;-70
2023/05/02 03:25:12;;;;;;;5.55;1.25;;;;;;;;;;5125371;27;20069;-70
2023/05/02 03:27:39;;;;;;;3.33;0.80;;;;;;;;;;5128250;27;20066;-70
2023/05/02 03:30:09;;;;;;;5.57;1.02;;;;;;;;;;5128388;27;20091;-70
2023/05/02 03:32:36;;;;;;;8.30;1.10;;;;;;;;;;5108891;27;20055;-70
2023/05/02 03:35:03;;;;;;;4.40;0.98;;;;;;;;;;5124061;27;20047;-70
2023/05/02 03:37:30;;;;;;;2.15;0.90;;;;;;;;;;5128571;27;20047;-70
2023/05/02 03:39:58;;;;;;;2.78;0.95;;;;;;;;;;5126999;27;20039;-70
2023/05/02 03:42:25;;;;;;;3.30;0.93;;;;;;;;;;5128792;27;20411;-70
2023/05/02 03:44:53;;;;;;;4.60;0.90;;;;;;;;;;5126705;27;20043;-70
2023/05/02 03:47:21;;;;;;;4.53;0.82;;;;;;;;;;5128099;27;20051;-70
2023/05/02 03:49:49;;;;;;;2.45;0.80;;;;;;;;;;5126128;27;20467;-70
2023/05/02 03:52:16;;;;;;;3.85;0.70;;;;;;;;;;5125277;27;20055;-70
2023/05/02 03:54:43;;;;;;;2.60;0.75;;;;;;;;;;5125175;27;20482;-70
2023/05/02 03:57:11;;;;;;;1.65;0.70;;;;;;;;;;5127660;27;20122;-70
2023/05/02 03:59:40;;;;;;;2.10;0.60;;;;;;;;;;5128493;27;20055;-70
2023/05/02 04:02:07;;;;;;;3.47;0.95;;;;;;;;;;5127016;27;20525;-70
2023/05/02 04:04:36;;;;;;;3.58;0.60;;;;;;;;;;5126555;27;20074;-70
2023/05/02 04:07:04;;;;;;;1.33;0.68;;;;;;;;;;5126591;27;20398;-70
2023/05/02 04:09:31;;;;;;;5.30;0.80;;;;;;;;;;5126499;27;20521;-70
2023/05/02 04:11:58;;;;;;;3.17;0.60;;;;;;;;;;5127883;27;20047;-70
2023/05/02 04:14:25;;;;;;;3.97;0.88;;;;;;;;;;5126782;27;20073;-70
2023/05/02 04:16:53;;;;;;;3.85;0.73;;;;;;;;;;5124570;27;20043;-70
2023/05/02 04:19:20;;;;;;;3.60;0.80;;;;;;;;;;5123165;27;20047;-69
2023/05/02 04:21:49;;;;;;;3.83;0.68;;;;;;;;;;5109998;28;20040;-70
2023/05/02 04:24:16;;;;;;;4.28;0.70;;;;;;;;;;5084776;28;20134;-70
2023/05/02 04:26:43;;;;;;;3.90;0.70;;;;;;;;;;5104779;28;20047;-70
2023/05/02 04:29:10;;;;;;;3.25;0.60;;;;;;;;;;5106510;28;20048;-70
2023/05/02 04:31:38;;;;;;;2.95;0.60;;;;;;;;;;5107854;28;20055;-69
2023/05/02 04:34:05;;;;;;;4.68;0.70;;;;;;;;;;5105391;28;20487;-70
2023/05/02 04:36:32;;;;;;;1.73;0.68;;;;;;;;;;5105433;28;20048;-70
2023/05/02 04:39:02;;;;;;;3.30;0.60;;;;;;;;;;5107128;28;20057;-70
2023/05/02 04:41:29;;;;;;;5.63;0.70;;;;;;;;;;5106269;28;20047;-70
2023/05/02 04:43:57;;;;;;;6.53;0.80;;;;;;;;;;5106936;28;20047;-70
2023/05/02 04:46:24;;;;;;;2.45;0.50;;;;;;;;;;5113792;27;20079;-70
2023/05/02 04:48:51;;;;;;;2.70;0.52;;;;;;;;;;5111567;28;20136;-70
2023/05/02 04:51:19;;;;;;;1.73;0.60;;;;;;;;;;5108615;27;20047;-70
2023/05/02 04:53:46;;;;;;;5.10;1.73;;;;;;;;;;5112205;27;20291;-70
2023/05/02 04:56:15;;;;;;;3.28;0.77;;;;;;;;;;5106820;28;20111;-70
2023/05/02 04:58:42;;;;;;;2.85;1.05;;;;;;;;;;5110196;28;20503;-70
2023/05/02 05:01:09;;;;;;;4.35;1.10;;;;;;;;;;5110209;28;20058;-70
2023/05/02 05:03:36;;;;;;;6.32;1.30;;;;;;;;;;5108640;28;20043;-70
2023/05/02 05:06:04;;;;;;;8.20;2.97;;;;;;;;;;5105657;28;20051;-70
2023/05/02 05:08:31;;;;;;;10.55;3.10;;;;;;;;;;5091182;28;20139;-70
2023/05/02 05:10:58;;;;;;;5.28;1.90;;;;;;;;;;5109412;28;20059;-70
2023/05/02 05:13:27;;;;;;;7.65;2.50;;;;;;;;;;5109312;28;20044;-70
2023/05/02 05:15:55;;;;;;;8.57;2.08;;;;;;;;;;5105979;28;20089;-70
2023/05/02 05:18:22;;;;;;;2.58;1.10;;;;;;;;;;5106564;28;20052;-70
2023/05/02 05:20:49;;;;;;;4.38;1.20;;;;;;;;;;5121554;27;20506;-70
2023/05/02 05:23:17;;;;;;;6.18;1.00;;;;;;;;;;5126467;27;20051;-70
2023/05/02 05:25:44;;;;;;;6.88;1.70;;;;;;;;;;5106759;27;20062;-70
2023/05/02 05:28:11;;;;;;;4.70;1.02;;;;;;;;;;5128354;27;20062;-70
2023/05/02 05:30:40;;;;;;;6.07;1.58;;;;;;;;;;5127789;27;20115;-70
2023/05/02 05:33:07;;;;;;;8.20;1.50;;;;;;;;;;5107982;27;20059;-69
2023/05/02 05:35:35;;;;;;;4.90;1.40;;;;;;;;;;5128542;27;20054;-69
2023/05/02 05:38:02;;;;;;;5.60;2.17;;;;;;;;;;5125815;27;20047;-69
2023/05/02 05:40:29;;;;;;;3.55;1.25;;;;;;;;;;5130042;27;20039;-71
2023/05/02 05:42:56;;;;;;;6.45;1.55;;;;;;;;;;5126314;27;20051;-71
2023/05/02 05:45:24;;;;;;;7.07;1.63;;;;;;;;;;5107947;27;20047;-72
2023/05/02 05:47:54;;;;;;;6.47;1.20;;;;;;;;;;5128803;27;20055;-73
2023/05/02 05:50:21;;;;;;;7.15;1.30;;;;;;;;;;5107468;27;20104;-71
2023/05/02 05:52:49;;;;;;;5.32;0.88;;;;;;;;;;5108134;27;20048;-72
2023/05/02 05:55:16;;;;;;;10.48;1.27;;;;;;;;;;5128300;27;20517;-72
2023/05/02 05:57:43;;;;;;;3.33;0.70;;;;;;;;;;5108941;27;20054;-72
2023/05/02 06:00:11;;;;;;;3.85;1.05;;;;;;;;;;5129157;27;20047;-73
2023/05/02 06:02:38;;;;;;;7.43;2.30;;;;;;;;;;5129143;27;20057;-71
2023/05/02 06:05:07;;;;;;;3.10;1.30;;;;;;;;;;5109174;27;20051;-73
2023/05/02 06:07:34;;;;;;;2.70;0.82;;;;;;;;;;5109727;27;20047;-72
2023/05/02 06:10:02;;;;;;;4.20;0.95;;;;;;;;;;5127816;27;20402;-73
2023/05/02 06:12:29;;;;;;;4.88;0.95;;;;;;;;;;5126760;27;20424;-73
2023/05/02 06:14:56;;;;;;;4.68;1.00;;;;;;;;;;5127617;27;20040;-73
2023/05/02 06:17:23;;;;;;;5.95;0.98;;;;;;;;;;5103588;27;20053;-72
2023/05/02 06:19:50;;;;;;;2.80;0.77;;;;;;;;;;5122848;27;20063;-72
2023/05/02 06:22:19;;;;;;;5.57;1.00;;;;;;;;;;5109824;27;20047;-72
2023/05/02 06:24:46;;;;;;;4.38;1.02;;;;;;;;;;5123676;27;20043;-72
2023/05/02 06:27:13;;;;;;;3.47;0.85;;;;;;;;;;5111141;27;20056;-73
2023/05/02 06:29:41;;;;;;;4.15;0.85;;;;;;;;;;5111785;27;20508;-72
2023/05/02 06:32:08;;;;;;;5.88;1.00;;;;;;;;;;5110173;27;20146;-72
2023/05/02 06:34:36;;;;;;;5.47;0.88;;;;;;;;;;5110064;27;20487;-72
2023/05/02 06:37:03;;;;;;;2.15;0.80;;;;;;;;;;5110567;27;20063;-75
2023/05/02 06:39:32;;;;;;;1.65;0.68;;;;;;;;;;5105996;27;20043;-74
2023/05/02 06:41:59;;;;;;;6.00;0.95;;;;;;;;;;5112476;27;20047;-73
2023/05/02 06:44:26;;;;;;;4.05;0.88;;;;;;;;;;5116251;27;20513;-72
2023/05/02 06:46:54;;;;;;;3.40;1.10;;;;;;;;;;5106447;27;20050;-73
2023/05/02 06:49:21;;;;;;;3.00;1.05;;;;;;;;;;5105995;27;20126;-71
2023/05/02 06:51:49;;;;;;;4.60;0.90;;;;;;;;;;5113953;27;20043;-72
2023/05/02 06:54:17;;;;;;;7.07;1.00;;;;;;;;;;5102426;27;20052;-70
2023/05/02 06:56:45;;;;;;;2.35;0.90;;;;;;;;;;5114674;27;20044;-71
2023/05/02 06:59:15;;;;;;;5.90;1.05;;;;;;;;;;5106060;27;20053;-71
2023/05/02 07:01:42;;;;;;;2.42;0.82;;;;;;;;;;5104937;27;20067;-71
2023/05/02 07:04:10;;;;;;;4.00;0.90;;;;;;;;;;5107993;27;20042;-71
2023/05/02 07:06:37;;;;;;;8.00;1.15;;;;;;;;;;5110772;27;20051;-71
2023/05/02 07:09:04;;;;;;;5.95;1.00;;;;;;;;;;5112227;27;20039;-71
2023/05/02 07:11:31;;;;;;;3.33;1.00;;;;;;;;;;5113583;27;20585;-71
2023/05/02 07:14:00;;;;;;;5.82;1.60;;;;;;;;;;5108706;27;20059;-71
2023/05/02 07:16:28;;;;;;;3.58;1.00;;;;;;;;;;5110990;27;20059;-71
2023/05/02 07:18:55;;;;;;;2.65;1.23;;;;;;;;;;5107035;27;20048;-71
2023/05/02 07:21:23;;;;;;;4.97;1.23;;;;;;;;;;5102805;27;20059;-71
2023/05/02 07:23:50;;;;;;;3.53;0.80;;;;;;;;;;5105057;28;20483;-71
2023/05/02 07:26:18;;;;;;;6.43;0.88;;;;;;;;;;5106853;28;20055;-71
2023/05/02 07:28:46;;;;;;;5.57;1.15;;;;;;;;;;5109209;28;20043;-70
2023/05/02 07:31:14;;;;;;;4.70;0.85;;;;;;;;;;5107981;28;20036;-71
2023/05/02 07:33:42;;;;;;;1.85;0.70;;;;;;;;;;5103793;28;20066;-71
2023/05/02 07:36:09;;;;;;;2.72;1.00;;;;;;;;;;5104008;28;20511;-71
2023/05/02 07:38:36;;;;;;;1.27;0.60;;;;;;;;;;5079772;28;20055;-71
2023/05/02 07:41:03;;;;;;;2.28;0.57;;;;;;;;;;5096608;28;20048;-71
2023/05/02 07:43:31;;;;;;;3.63;0.70;;;;;;;;;;5081532;28;20044;-71
2023/05/02 07:45:58;;;;;;;3.65;0.70;;;;;;;;;;5107507;28;20199;-71
2023/05/02 07:48:27;;;;;;;3.80;0.57;;;;;;;;;;5107964;28;20080;-71
2023/05/02 07:50:54;;;;;;;2.50;0.55;;;;;;;;;;5106006;28;20054;-71
2023/05/02 07:53:21;;;;;;;2.15;0.80;;;;;;;;;;5108407;28;20048;-71
2023/05/02 07:55:48;;;;;;;2.03;0.82;;;;;;;;;;5107019;28;20108;-71
2023/05/02 07:58:16;;;;;;;5.82;0.65;;;;;;;;;;5101128;28;20054;-71
2023/05/02 08:00:43;;;;;;;2.75;0.60;;;;;;;;;;5108790;28;20130;-71
2023/05/02 08:03:10;;;;;;;2.05;0.55;;;;;;;;;;5102717;28;20055;-71
2023/05/02 08:05:39;;;;;;;1.02;0.52;;;;;;;;;;5103091;28;20055;-71
2023/05/02 08:08:06;;;;;;;4.13;0.85;;;;;;;;;;5097604;28;20051;-71
2023/05/02 08:10:33;;;;;;;10.57;3.70;;;;;;;;;;5104246;28;20052;-71
2023/05/02 08:13:01;;;;;;;3.60;1.25;;;;;;;;;;5106077;28;20494;-71
2023/05/02 08:15:29;;;;;;;2.95;1.00;;;;;;;;;;5106327;28;20387;-71
2023/05/02 08:17:56;;;;;;;4.93;0.93;;;;;;;;;;5107128;28;20052;-71
2023/05/02 08:20:23;;;;;;;1.15;0.57;;;;;;;;;;5108187;27;20456;-71
2023/05/02 08:22:52;;;;;;;2.55;0.60;;;;;;;;;;5102368;28;20078;-71
2023/05/02 08:25:19;;;;;;;2.58;0.70;;;;;;;;;;5110844;28;20052;-71
2023/05/02 08:27:46;;;;;;;1.35;0.40;;;;;;;;;;5108129;28;20109;-71
2023/05/02 08:30:14;;;;;;;2.58;0.80;;;;;;;;;;5111072;28;20056;-71
2023/05/02 08:32:41;;;;;;;1.33;0.52;;;;;;;;;;5102233;27;20051;-71
2023/05/02 08:35:09;;;;;;;4.35;1.17;;;;;;;;;;5108008;28;20134;-71
2023/05/02 08:37:36;;;;;;;6.07;0.75;;;;;;;;;;5093116;28;20409;-71
2023/05/02 08:40:05;;;;;;;4.15;0.80;;;;;;;;;;5110252;27;20087;-71
2023/05/02 08:42:34;;;;;;;1.73;0.40;;;;;;;;;;5106027;28;20128;-71
2023/05/02 08:45:01;;;;;;;1.58;0.50;;;;;;;;;;5110483;28;20077;-71
2023/05/02 08:47:30;;;;;;;5.00;0.65;;;;;;;;;;5112190;28;20044;-72
2023/05/02 08:49:58;;;;;;;1.42;0.60;;;;;;;;;;5099454;27;20051;-71
2023/05/02 08:52:25;;;;;;;3.13;0.40;;;;;;;;;;5091207;28;20043;-72
2023/05/02 08:54:53;;;;;;;3.95;0.50;;;;;;;;;;5108127;28;20051;-72
2023/05/02 08:57:21;;;;;;;1.75;0.75;;;;;;;;;;5106286;28;20044;-71
2023/05/02 08:59:49;;;;;;;1.85;0.60;;;;;;;;;;5108108;28;20040;-71
2023/05/02 09:02:21;;;;;;;3.70;0.82;;;;;;;;;;5089671;28;20055;-71
2023/05/02 09:04:54;;;;;;;1.33;0.57;;;;;;;;;;5087163;28;20499;-72
2023/05/02 09:07:22;;;;;;;2.55;0.50;;;;;;;;;;5106356;28;20067;-71
2023/05/02 09:09:49;;;;;;;1.23;0.40;;;;;;;;;;5109999;28;20539;-71
2023/05/02 09:12:16;;;;;;;3.85;0.45;;;;;;;;;;5110821;28;20098;-72
2023/05/02 09:14:45;;;;;;;0.75;0.50;;;;;;;;;;5109059;28;20046;-71
2023/05/02 09:17:12;;;;;;;1.33;0.50;;;;;;;;;;5106727;28;20043;-71
2023/05/02 09:19:40;;;;;;;1.75;0.50;;;;;;;;;;5109882;27;20406;-71
2023/05/02 09:22:07;;;;;;;0.85;0.40;;;;;;;;;;5125734;27;20420;-71
2023/05/02 09:24:35;;;;;;;1.02;0.38;;;;;;;;;;5129723;27;20035;-71
2023/05/02 09:27:03;;;;;;;0.90;0.30;;;;;;;;;;5112611;27;20043;-71
2023/05/02 09:29:34;;;;;;;4.00;0.47;;;;;;;;;;5130516;27;20057;-71
2023/05/02 09:32:03;;;;;;;0.90;0.30;;;;;;;;;;5130908;27;20440;-71
2023/05/02 09:34:30;;;;;;;2.28;0.43;;;;;;;;;;5126062;27;20088;-71
2023/05/02 09:36:58;;;;;;;3.25;0.50;;;;;;;;;;5125858;27;20470;-71
2023/05/02 09:39:27;;;;;;;2.13;0.77;;;;;;;;;;5112589;27;20100;-71
2023/05/02 09:41:55;;;;;;;1.95;0.40;;;;;;;;;;5130592;27;20085;-71
2023/05/02 09:44:23;;;;;;;1.60;0.55;;;;;;;;;;5129933;27;20375;-71
2023/05/02 09:46:51;;;;;;;3.35;0.60;;;;;;;;;;5129630;27;20122;-71
2023/05/02 09:49:20;;;;;;;1.73;0.50;;;;;;;;;;5110501;27;20058;-70
2023/05/02 09:51:48;;;;;;;3.78;0.60;;;;;;;;;;5101251;27;20059;-71
2023/05/02 09:54:15;;;;;;;0.70;0.40;;;;;;;;;;5128907;27;20510;-71
2023/05/02 09:57:00;;;;;;;2.65;0.45;;;;;;;;;;5130823;27;20508;-71
2023/05/02 09:59:28;;;;;;;1.75;0.60;;;;;;;;;;5128873;27;20111;-71
2023/05/02 10:01:57;;;;;;;1.40;0.52;;;;;;;;;;5129746;27;20046;-71
2023/05/02 10:04:26;;;;;;;1.17;0.50;;;;;;;;;;5128779;27;20071;-70
2023/05/02 10:06:54;;;;;;;2.05;0.50;;;;;;;;;;5129496;27;20055;-71
2023/05/02 10:09:22;;;;;;;1.58;0.40;;;;;;;;;;5129402;27;20047;-71
2023/05/02 10:11:51;;;;;;;3.22;0.40;;;;;;;;;;5127679;27;20039;-71
2023/05/02 10:14:20;;;;;;;1.70;0.45;;;;;;;;;;5128704;27;20054;-70
2023/05/02 10:16:54;;;;;;;1.30;0.60;;;;;;;;;;5128808;27;20043;-70
2023/05/02 10:19:24;;;;;;;3.25;0.80;;;;;;;;;;5124413;27;20093;-71
2023/05/02 10:21:53;;;;;;;1.73;0.52;;;;;;;;;;5115459;27;20482;-71
2023/05/02 10:24:21;;;;;;;3.08;0.70;;;;;;;;;;5109055;27;20112;-71
2023/05/02 10:26:49;;;;;;;2.40;0.40;;;;;;;;;;5112633;27;20047;-71
2023/05/02 10:29:16;;;;;;;1.80;0.50;;;;;;;;;;5114936;27;20052;-70
2023/05/02 10:31:44;;;;;;;1.70;0.65;;;;;;;;;;5117072;27;20051;-70
2023/05/02 10:34:12;;;;;;;1.55;0.57;;;;;;;;;;5111184;27;20477;-71
2023/05/02 10:36:39;;;;;;;2.00;0.43;;;;;;;;;;5115722;27;20055;-70
2023/05/02 10:39:08;;;;;;;1.42;0.47;;;;;;;;;;5121618;27;20501;-71
2023/05/02 10:41:35;;;;;;;3.33;0.70;;;;;;;;;;5121339;27;20412;-71
2023/05/02 10:44:06;;;;;;;2.55;0.60;;;;;;;;;;5115372;27;20692;-71
2023/05/02 10:46:34;;;;;;;1.90;0.40;;;;;;;;;;5114786;27;20131;-70
2023/05/02 10:49:02;;;;;;;0.80;0.30;;;;;;;;;;5115734;27;20060;-70
2023/05/02 10:51:30;;;;;;;2.00;0.43;;;;;;;;;;5111393;27;20040;-71
2023/05/02 10:54:12;;;;;;;1.33;0.50;;;;;;;;;;5103348;27;20043;-71
2023/05/02 10:56:54;;;;;;;1.63;0.40;;;;;;;;;;5111754;27;20043;-71
2023/05/02 10:59:30;;;;;;;1.95;0.50;;;;;;;;;;5111586;27;20054;-70
2023/05/02 11:01:57;;;;;;;0.73;0.30;;;;;;;;;;5113150;27;20048;-70
2023/05/02 11:04:26;;;;;;;3.03;0.65;;;;;;;;;;5106157;27;20051;-71
2023/05/02 11:07:23;;;;;;;1.00;0.40;;;;;;;;;;5111120;27;20062;-71
2023/05/02 11:09:50;;;;;;;2.20;0.70;;;;;;;;;;5036364;28;20048;-71
2023/05/02 11:12:32;;;;;;;3.90;0.60;;;;;;;;;;5090170;27;20388;-70
2023/05/02 11:15:01;;;;;;;2.28;0.40;;;;;;;;;;5101729;27;20388;-70
2023/05/02 11:17:28;;;;;;;1.58;0.52;;;;;;;;;;5126506;27;20047;-70
2023/05/02 11:20:26;;;;;;;2.75;0.70;;;;;;;;;;5109237;27;20487;-70
2023/05/02 11:22:53;;;;;;;1.77;0.55;;;;;;;;;;5107301;27;20073;-70
2023/05/02 11:25:35;;;;;;;1.13;0.77;;;;;;;;;;5112189;27;20113;-70
2023/05/02 11:28:03;;;;;;;2.13;0.70;;;;;;;;;;5111552;27;20054;-70
2023/05/02 11:30:42;;;;;;;1.95;0.50;;;;;;;;;;5110294;27;20044;-70
2023/05/02 11:33:19;;;;;;;2.60;0.73;;;;;;;;;;5101120;27;20043;-70
2023/05/02 11:35:47;;;;;;;2.53;0.52;;;;;;;;;;5118281;27;20490;-69
2023/05/02 11:38:19;;;;;;;4.32;0.65;;;;;;;;;;5114079;27;20552;-69
2023/05/02 11:40:56;;;;;;;2.72;0.60;;;;;;;;;;5108480;27;20126;-69
2023/05/02 11:43:25;;;;;;;1.83;0.93;;;;;;;;;;5109574;28;20451;-70
2023/05/02 11:45:54;;;;;;;0.63;0.35;;;;;;;;;;5106759;28;20052;-70
2023/05/02 11:48:22;;;;;;;0.90;0.40;;;;;;;;;;5114804;28;20066;-70
2023/05/02 11:50:50;;;;;;;2.28;0.40;;;;;;;;;;5114313;28;20398;-70
2023/05/02 11:53:18;;;;;;;0.75;0.40;;;;;;;;;;5110308;27;20106;-70
2023/05/02 11:55:49;;;;;;;3.63;0.52;;;;;;;;;;5113672;27;20048;-70
2023/05/02 11:58:17;;;;;;;0.90;0.40;;;;;;;;;;5115723;27;20036;-70
2023/05/02 12:00:46;;;;;;;1.20;0.50;;;;;;;;;;5117445;27;20469;-69
2023/05/02 12:03:29;;;;;;;4.20;0.60;;;;;;;;;;5113542;27;20078;-70
2023/05/02 12:05:56;;;;;;;0.55;0.30;;;;;;;;;;5117089;27;20047;-70
2023/05/02 12:08:25;;;;;;;2.15;0.50;;;;;;;;;;5108203;27;20057;-70
2023/05/02 12:10:53;;;;;;;1.90;0.68;;;;;;;;;;5118227;27;20047;-69
2023/05/02 12:13:22;;;;;;;2.55;0.50;;;;;;;;;;5111706;27;20039;-69
2023/05/02 12:15:50;;;;;;;1.63;0.50;;;;;;;;;;5115943;27;20055;-70
2023/05/02 12:18:18;;;;;;;1.00;0.38;;;;;;;;;;5111974;27;20103;-70
2023/05/02 12:20:47;;;;;;;0.82;0.35;;;;;;;;;;5113465;27;20054;-70
2023/05/02 12:23:14;;;;;;;1.63;0.40;;;;;;;;;;5104589;28;20113;-70
2023/05/02 12:25:42;;;;;;;0.30;0.30;;;;;;;;;;5109587;28;20528;-70
2023/05/02 12:28:10;;;;;;;1.48;0.40;;;;;;;;;;5103152;28;20066;-70
2023/05/02 12:30:38;;;;;;;0.73;0.30;;;;;;;;;;5106451;28;20105;-71
2023/05/02 12:33:06;;;;;;;1.27;0.30;;;;;;;;;;5107193;28;20556;-69
2023/05/02 12:35:34;;;;;;;2.45;0.30;;;;;;;;;;5109880;27;20071;-70
2023/05/02 12:38:13;;;;;;;1.05;0.40;;;;;;;;;;5100391;28;20040;-70
2023/05/02 12:40:47;;;;;;;2.30;0.50;;;;;;;;;;5111244;28;20082;-70
2023/05/02 12:43:14;;;;;;;2.35;0.52;;;;;;;;;;5109364;28;20126;-70
2023/05/02 12:45:42;;;;;;;2.40;0.40;;;;;;;;;;5111423;28;20051;-71
2023/05/02 12:48:20;;;;;;;1.52;0.40;;;;;;;;;;5108720;28;20380;-71
2023/05/02 12:50:47;;;;;;;0.77;0.40;;;;;;;;;;5112004;28;20052;-71
2023/05/02 12:53:16;;;;;;;0.90;0.30;;;;;;;;;;5107722;28;20674;-71
2023/05/02 12:55:43;;;;;;;2.38;0.32;;;;;;;;;;5112927;27;20569;-72
2023/05/02 12:58:12;;;;;;;2.47;0.50;;;;;;;;;;5110185;28;20047;-71
2023/05/02 13:00:40;;;;;;;0.65;0.40;;;;;;;;;;5110799;27;20094;-71
2023/05/02 13:03:07;;;;;;;1.50;0.50;;;;;;;;;;5108377;28;20055;-71
2023/05/02 13:05:35;;;;;;;0.75;0.40;;;;;;;;;;5107428;28;20055;-70
2023/05/02 13:08:02;;;;;;;1.38;0.40;;;;;;;;;;5107517;28;20047;-70
2023/05/02 13:10:31;;;;;;;1.90;0.40;;;;;;;;;;5108707;28;20048;-71
2023/05/02 13:13:00;;;;;;;1.85;0.45;;;;;;;;;;5104602;28;20705;-70
2023/05/02 13:15:27;;;;;;;3.83;0.75;;;;;;;;;;5110781;28;20083;-71
2023/05/02 13:17:55;;;;;;;1.00;0.32;;;;;;;;;;5112868;27;20044;-70
2023/05/02 13:20:22;;;;;;;2.30;0.50;;;;;;;;;;5118613;27;20055;-70
2023/05/02 13:22:49;;;;;;;0.93;0.40;;;;;;;;;;5129795;27;20035;-70
2023/05/02 13:25:16;;;;;;;0.57;0.40;;;;;;;;;;5131487;27;20514;-70
2023/05/02 13:27:45;;;;;;;1.85;0.40;;;;;;;;;;5110921;27;20394;-70
2023/05/02 13:30:13;;;;;;;1.95;0.50;;;;;;;;;;5111686;27;20061;-71
2023/05/02 13:32:40;;;;;;;1.10;0.40;;;;;;;;;;5129306;27;20051;-70
2023/05/02 13:35:08;;;;;;;3.50;0.40;;;;;;;;;;5111532;27;20579;-70
2023/05/02 13:37:35;;;;;;;0.98;0.30;;;;;;;;;;5111986;27;20047;-70
2023/05/02 13:40:03;;;;;;;3.65;0.38;;;;;;;;;;5110215;27;20720;-70
2023/05/02 13:42:31;;;;;;;0.73;0.43;;;;;;;;;;5131596;27;20150;-70
2023/05/02 13:45:01;;;;;;;2.35;0.40;;;;;;;;;;5129804;27;20509;-70
2023/05/02 13:47:29;;;;;;;1.15;0.40;;;;;;;;;;5131427;27;20108;-71
2023/05/02 13:49:56;;;;;;;2.80;0.40;;;;;;;;;;5127537;27;20054;-70
2023/05/02 13:52:23;;;;;;;1.13;0.45;;;;;;;;;;5125360;27;20055;-70
2023/05/02 13:54:51;;;;;;;1.48;0.55;;;;;;;;;;5130848;27;20039;-70
2023/05/02 13:57:18;;;;;;;2.00;0.45;;;;;;;;;;5128681;27;20406;-70
2023/05/02 13:59:45;;;;;;;1.10;0.38;;;;;;;;;;5130729;27;20053;-70
2023/05/02 14:02:14;;;;;;;1.33;0.43;;;;;;;;;;5128803;27;20513;-70
2023/05/02 14:04:41;;;;;;;1.08;0.40;;;;;;;;;;5128103;27;20670;-70
2023/05/02 14:07:08;;;;;;;0.90;0.40;;;;;;;;;;5129651;27;20047;-70
2023/05/02 14:09:35;;;;;;;1.48;0.35;;;;;;;;;;5128748;27;20062;-71
2023/05/02 14:12:03;;;;;;;2.05;0.52;;;;;;;;;;5128723;27;20504;-70
2023/05/02 14:14:30;;;;;;;1.98;0.50;;;;;;;;;;5129498;27;20474;-71
2023/05/02 14:16:58;;;;;;;2.33;0.43;;;;;;;;;;5128714;27;20050;-69
2023/05/02 14:19:27;;;;;;;0.75;0.40;;;;;;;;;;5109015;27;20057;-71
2023/05/02 14:21:54;;;;;;;0.82;0.35;;;;;;;;;;5121696;27;20043;-70
2023/05/02 14:24:21;;;;;;;0.43;0.40;;;;;;;;;;5121863;27;20164;-71
2023/05/02 14:26:48;;;;;;;0.38;0.30;;;;;;;;;;5107899;27;20043;-70
2023/05/02 14:29:16;;;;;;;0.50;0.32;;;;;;;;;;5111389;27;20054;-70
2023/05/02 14:31:44;;;;;;;1.15;0.40;;;;;;;;;;5112502;27;20058;-70
2023/05/02 14:34:12;;;;;;;0.77;0.30;;;;;;;;;;5125004;27;20069;-70
2023/05/02 14:36:40;;;;;;;1.58;0.50;;;;;;;;;;5125086;27;20047;-70
2023/05/02 14:39:07;;;;;;;1.38;0.45;;;;;;;;;;5129595;27;20041;-71
2023/05/02 14:41:35;;;;;;;0.75;0.40;;;;;;;;;;5129145;27;20051;-71
2023/05/02 14:44:02;;;;;;;0.85;0.30;;;;;;;;;;5129729;27;20539;-71
2023/05/02 14:46:29;;;;;;;1.23;0.40;;;;;;;;;;5128985;27;20054;-70
2023/05/02 14:48:57;;;;;;;1.58;0.50;;;;;;;;;;5128973;27;20414;-71
2023/05/02 14:51:25;;;;;;;0.80;0.30;;;;;;;;;;5128459;27;20051;-70